sensor_id;sensor_type;location;lat;lon;timestamp;P1;durP1;ratioP1;P2;durP2;ratioP2
21777;SDS011;11050;52.222;20.916;2024-03-22T00:01:53;62.87;;;37.50;;
21777;SDS011;11050;52.222;20.916;2024-03-22T00:04:20;66.07;;;37.57;;
21777;SDS011;11050;52.222;20.916;2024-03-22T00:06:48;66.17;;;38.07;;
21777;SDS011;11050;52.222;20.916;2024-03-22T00:09:15;72.40;;;39.63;;
21777;SDS011;11050;52.222;20.916;2024-03-22T00:11:42;65.10;;;38.22;;
21777;SDS011;11050;52.222;20.916;2024-03-22T00:14:09;68.03;;;40.50;;
21777;SDS011;11050;52.222;20.916;2024-03-22T00:16:36;78.93;;;42.87;;
21777;SDS011;11050;52.222;20.916;2024-03-22T00:19:03;73.57;;;41.60;;
21777;SDS011;11050;52.222;20.916;2024-03-22T00:21:29;69.07;;;40.73;;
21777;SDS011;11050;52.222;20.916;2024-03-22T00:23:56;71.60;;;40.07;;
21777;SDS011;11050;52.222;20.916;2024-03-22T00:26:23;76.33;;;42.43;;
21777;SDS011;11050;52.222;20.916;2024-03-22T00:28:49;71.00;;;40.70;;
21777;SDS011;11050;52.222;20.916;2024-03-22T00:31:15;75.33;;;40.37;;
21777;SDS011;11050;52.222;20.916;2024-03-22T00:33:42;63.53;;;38.63;;
21777;SDS011;11050;52.222;20.916;2024-03-22T00:36:08;76.87;;;40.03;;
21777;SDS011;11050;52.222;20.916;2024-03-22T00:38:34;74.53;;;41.97;;
21777;SDS011;11050;52.222;20.916;2024-03-22T00:41:00;73.73;;;40.93;;
21777;SDS011;11050;52.222;20.916;2024-03-22T00:43:26;77.07;;;40.07;;
21777;SDS011;11050;52.222;20.916;2024-03-22T00:45:52;81.53;;;42.10;;
21777;SDS011;11050;52.222;20.916;2024-03-22T00:48:17;71.83;;;39.53;;
21777;SDS011;11050;52.222;20.916;2024-03-22T00:50:43;77.03;;;41.33;;
21777;SDS011;11050;52.222;20.916;2024-03-22T00:53:09;76.67;;;41.50;;
21777;SDS011;11050;52.222;20.916;2024-03-22T00:55:35;75.60;;;41.90;;
21777;SDS011;11050;52.222;20.916;2024-03-22T00:58:01;79.60;;;42.77;;
21777;SDS011;11050;52.222;20.916;2024-03-22T01:00:27;86.13;;;46.43;;
21777;SDS011;11050;52.222;20.916;2024-03-22T01:02:53;90.07;;;44.67;;
21777;SDS011;11050;52.222;20.916;2024-03-22T01:05:19;81.40;;;43.50;;
21777;SDS011;11050;52.222;20.916;2024-03-22T01:07:44;90.50;;;46.83;;
21777;SDS011;11050;52.222;20.916;2024-03-22T01:10:10;83.27;;;45.37;;
21777;SDS011;11050;52.222;20.916;2024-03-22T01:12:37;91.50;;;48.27;;
21777;SDS011;11050;52.222;20.916;2024-03-22T01:15:04;89.57;;;46.70;;
21777;SDS011;11050;52.222;20.916;2024-03-22T01:17:32;89.60;;;45.97;;
21777;SDS011;11050;52.222;20.916;2024-03-22T01:19:58;92.03;;;46.50;;
21777;SDS011;11050;52.222;20.916;2024-03-22T01:22:24;93.03;;;49.23;;
21777;SDS011;11050;52.222;20.916;2024-03-22T01:24:50;91.67;;;48.03;;
21777;SDS011;11050;52.222;20.916;2024-03-22T01:27:16;96.63;;;50.23;;
21777;SDS011;11050;52.222;20.916;2024-03-22T01:29:41;90.60;;;49.60;;
21777;SDS011;11050;52.222;20.916;2024-03-22T01:32:07;95.63;;;47.87;;
21777;SDS011;11050;52.222;20.916;2024-03-22T01:34:33;107.53;;;52.97;;
21777;SDS011;11050;52.222;20.916;2024-03-22T01:36:59;100.90;;;51.50;;
21777;SDS011;11050;52.222;20.916;2024-03-22T01:39:26;99.90;;;51.77;;
21777;SDS011;11050;52.222;20.916;2024-03-22T01:41:51;99.20;;;50.17;;
21777;SDS011;11050;52.222;20.916;2024-03-22T01:44:17;103.60;;;52.13;;
21777;SDS011;11050;52.222;20.916;2024-03-22T01:46:44;101.63;;;50.20;;
21777;SDS011;11050;52.222;20.916;2024-03-22T01:49:13;110.93;;;53.00;;
21777;SDS011;11050;52.222;20.916;2024-03-22T01:51:41;107.03;;;51.70;;
21777;SDS011;11050;52.222;20.916;2024-03-22T01:54:08;104.50;;;51.27;;
21777;SDS011;11050;52.222;20.916;2024-03-22T01:56:38;113.17;;;54.43;;
21777;SDS011;11050;52.222;20.916;2024-03-22T01:59:04;111.00;;;54.07;;
21777;SDS011;11050;52.222;20.916;2024-03-22T02:01:31;105.93;;;51.37;;
21777;SDS011;11050;52.222;20.916;2024-03-22T02:03:58;111.27;;;53.13;;
21777;SDS011;11050;52.222;20.916;2024-03-22T02:06:24;108.70;;;51.30;;
21777;SDS011;11050;52.222;20.916;2024-03-22T02:08:50;113.13;;;53.10;;
21777;SDS011;11050;52.222;20.916;2024-03-22T02:11:16;111.47;;;51.80;;
21777;SDS011;11050;52.222;20.916;2024-03-22T02:13:42;115.47;;;52.87;;
21777;SDS011;11050;52.222;20.916;2024-03-22T02:16:08;111.50;;;52.03;;
21777;SDS011;11050;52.222;20.916;2024-03-22T02:18:34;110.63;;;51.70;;
21777;SDS011;11050;52.222;20.916;2024-03-22T02:21:00;108.30;;;50.97;;
21777;SDS011;11050;52.222;20.916;2024-03-22T02:23:32;120.17;;;51.57;;
21777;SDS011;11050;52.222;20.916;2024-03-22T02:25:59;106.40;;;48.97;;
21777;SDS011;11050;52.222;20.916;2024-03-22T02:28:26;117.87;;;50.47;;
21777;SDS011;11050;52.222;20.916;2024-03-22T02:30:51;116.00;;;50.40;;
21777;SDS011;11050;52.222;20.916;2024-03-22T02:33:17;110.37;;;50.37;;
21777;SDS011;11050;52.222;20.916;2024-03-22T02:35:43;110.70;;;52.37;;
21777;SDS011;11050;52.222;20.916;2024-03-22T02:38:12;108.53;;;50.37;;
21777;SDS011;11050;52.222;20.916;2024-03-22T02:40:38;100.20;;;47.67;;
21777;SDS011;11050;52.222;20.916;2024-03-22T02:43:03;109.07;;;50.47;;
21777;SDS011;11050;52.222;20.916;2024-03-22T02:45:30;107.87;;;46.87;;
21777;SDS011;11050;52.222;20.916;2024-03-22T02:47:57;97.17;;;46.60;;
21777;SDS011;11050;52.222;20.916;2024-03-22T02:50:23;100.17;;;47.73;;
21777;SDS011;11050;52.222;20.916;2024-03-22T02:52:49;102.73;;;46.43;;
21777;SDS011;11050;52.222;20.916;2024-03-22T02:55:15;92.93;;;44.57;;
21777;SDS011;11050;52.222;20.916;2024-03-22T02:57:41;105.50;;;47.60;;
21777;SDS011;11050;52.222;20.916;2024-03-22T03:00:06;106.77;;;48.30;;
21777;SDS011;11050;52.222;20.916;2024-03-22T03:02:33;103.10;;;46.97;;
21777;SDS011;11050;52.222;20.916;2024-03-22T03:04:59;106.00;;;47.33;;
21777;SDS011;11050;52.222;20.916;2024-03-22T03:07:25;102.00;;;46.97;;
21777;SDS011;11050;52.222;20.916;2024-03-22T03:09:52;105.23;;;48.13;;
21777;SDS011;11050;52.222;20.916;2024-03-22T03:12:18;106.70;;;46.93;;
21777;SDS011;11050;52.222;20.916;2024-03-22T03:14:44;104.70;;;46.00;;
21777;SDS011;11050;52.222;20.916;2024-03-22T03:17:10;105.77;;;47.10;;
21777;SDS011;11050;52.222;20.916;2024-03-22T03:19:36;108.37;;;47.40;;
21777;SDS011;11050;52.222;20.916;2024-03-22T03:22:02;100.50;;;46.33;;
21777;SDS011;11050;52.222;20.916;2024-03-22T03:24:28;107.53;;;48.63;;
21777;SDS011;11050;52.222;20.916;2024-03-22T03:26:54;112.67;;;47.77;;
21777;SDS011;11050;52.222;20.916;2024-03-22T03:29:20;106.97;;;48.17;;
21777;SDS011;11050;52.222;20.916;2024-03-22T03:31:45;99.67;;;45.10;;
21777;SDS011;11050;52.222;20.916;2024-03-22T03:34:11;94.37;;;43.57;;
21777;SDS011;11050;52.222;20.916;2024-03-22T03:36:37;92.17;;;42.63;;
21777;SDS011;11050;52.222;20.916;2024-03-22T03:39:03;91.47;;;42.00;;
21777;SDS011;11050;52.222;20.916;2024-03-22T03:41:31;91.27;;;44.00;;
21777;SDS011;11050;52.222;20.916;2024-03-22T03:43:57;95.07;;;44.90;;
21777;SDS011;11050;52.222;20.916;2024-03-22T03:46:23;95.97;;;44.60;;
21777;SDS011;11050;52.222;20.916;2024-03-22T03:48:49;88.27;;;41.13;;
21777;SDS011;11050;52.222;20.916;2024-03-22T03:51:14;89.80;;;41.57;;
21777;SDS011;11050;52.222;20.916;2024-03-22T03:53:40;77.87;;;38.87;;
21777;SDS011;11050;52.222;20.916;2024-03-22T03:56:06;79.37;;;37.37;;
21777;SDS011;11050;52.222;20.916;2024-03-22T03:58:31;73.70;;;36.50;;
21777;SDS011;11050;52.222;20.916;2024-03-22T04:00:57;73.60;;;36.17;;
21777;SDS011;11050;52.222;20.916;2024-03-22T04:03:23;82.17;;;36.93;;
21777;SDS011;11050;52.222;20.916;2024-03-22T04:05:58;76.00;;;35.90;;
21777;SDS011;11050;52.222;20.916;2024-03-22T04:08:27;74.90;;;34.73;;
21777;SDS011;11050;52.222;20.916;2024-03-22T04:10:54;77.53;;;34.93;;
21777;SDS011;11050;52.222;20.916;2024-03-22T04:13:23;75.57;;;33.23;;
21777;SDS011;11050;52.222;20.916;2024-03-22T04:15:53;80.20;;;35.70;;
21777;SDS011;11050;52.222;20.916;2024-03-22T04:18:19;77.40;;;35.13;;
21777;SDS011;11050;52.222;20.916;2024-03-22T04:20:54;75.90;;;34.53;;
21777;SDS011;11050;52.222;20.916;2024-03-22T04:23:22;75.60;;;34.97;;
21777;SDS011;11050;52.222;20.916;2024-03-22T04:25:56;82.07;;;36.77;;
21777;SDS011;11050;52.222;20.916;2024-03-22T04:28:24;81.10;;;36.60;;
21777;SDS011;11050;52.222;20.916;2024-03-22T04:30:57;85.87;;;38.60;;
21777;SDS011;11050;52.222;20.916;2024-03-22T04:33:32;85.07;;;36.10;;
21777;SDS011;11050;52.222;20.916;2024-03-22T04:35:59;85.87;;;37.33;;
21777;SDS011;11050;52.222;20.916;2024-03-22T04:38:26;87.53;;;36.70;;
21777;SDS011;11050;52.222;20.916;2024-03-22T04:40:53;89.23;;;37.33;;
21777;SDS011;11050;52.222;20.916;2024-03-22T04:43:20;88.47;;;37.77;;
21777;SDS011;11050;52.222;20.916;2024-03-22T04:45:46;84.47;;;37.13;;
21777;SDS011;11050;52.222;20.916;2024-03-22T04:48:17;86.43;;;38.27;;
21777;SDS011;11050;52.222;20.916;2024-03-22T04:50:47;83.63;;;36.90;;
21777;SDS011;11050;52.222;20.916;2024-03-22T04:53:15;81.73;;;39.03;;
21777;SDS011;11050;52.222;20.916;2024-03-22T04:55:48;84.57;;;37.30;;
21777;SDS011;11050;52.222;20.916;2024-03-22T04:58:19;86.87;;;38.90;;
21777;SDS011;11050;52.222;20.916;2024-03-22T05:00:47;87.23;;;38.20;;
21777;SDS011;11050;52.222;20.916;2024-03-22T05:03:14;79.53;;;37.37;;
21777;SDS011;11050;52.222;20.916;2024-03-22T05:05:41;83.87;;;37.43;;
21777;SDS011;11050;52.222;20.916;2024-03-22T05:08:08;80.70;;;35.43;;
21777;SDS011;11050;52.222;20.916;2024-03-22T05:10:34;76.57;;;34.87;;
21777;SDS011;11050;52.222;20.916;2024-03-22T05:13:00;76.17;;;35.87;;
21777;SDS011;11050;52.222;20.916;2024-03-22T05:15:27;77.83;;;35.53;;
21777;SDS011;11050;52.222;20.916;2024-03-22T05:17:54;76.13;;;34.90;;
21777;SDS011;11050;52.222;20.916;2024-03-22T05:20:22;68.03;;;32.50;;
21777;SDS011;11050;52.222;20.916;2024-03-22T05:22:48;74.63;;;34.23;;
21777;SDS011;11050;52.222;20.916;2024-03-22T05:25:14;71.97;;;33.13;;
21777;SDS011;11050;52.222;20.916;2024-03-22T05:27:40;65.60;;;32.17;;
21777;SDS011;11050;52.222;20.916;2024-03-22T05:30:07;83.07;;;35.57;;
21777;SDS011;11050;52.222;20.916;2024-03-22T05:32:38;70.80;;;33.20;;
21777;SDS011;11050;52.222;20.916;2024-03-22T05:35:05;70.80;;;31.67;;
21777;SDS011;11050;52.222;20.916;2024-03-22T05:37:31;66.83;;;32.10;;
21777;SDS011;11050;52.222;20.916;2024-03-22T05:39:58;62.13;;;32.17;;
21777;SDS011;11050;52.222;20.916;2024-03-22T05:42:25;68.23;;;33.33;;
21777;SDS011;11050;52.222;20.916;2024-03-22T05:44:51;66.97;;;33.63;;
21777;SDS011;11050;52.222;20.916;2024-03-22T05:47:18;66.77;;;31.77;;
21777;SDS011;11050;52.222;20.916;2024-03-22T05:49:44;69.17;;;33.07;;
21777;SDS011;11050;52.222;20.916;2024-03-22T05:52:14;65.80;;;33.13;;
21777;SDS011;11050;52.222;20.916;2024-03-22T05:54:40;64.27;;;32.97;;
21777;SDS011;11050;52.222;20.916;2024-03-22T05:57:06;66.13;;;32.50;;
21777;SDS011;11050;52.222;20.916;2024-03-22T05:59:32;66.07;;;31.13;;
21777;SDS011;11050;52.222;20.916;2024-03-22T06:01:59;59.60;;;31.23;;
21777;SDS011;11050;52.222;20.916;2024-03-22T06:04:26;63.63;;;32.27;;
21777;SDS011;11050;52.222;20.916;2024-03-22T06:06:51;67.03;;;33.40;;
21777;SDS011;11050;52.222;20.916;2024-03-22T06:09:17;68.80;;;33.67;;
21777;SDS011;11050;52.222;20.916;2024-03-22T06:11:49;60.57;;;31.30;;
21777;SDS011;11050;52.222;20.916;2024-03-22T06:14:18;59.93;;;30.77;;
21777;SDS011;11050;52.222;20.916;2024-03-22T06:16:43;57.87;;;32.07;;
21777;SDS011;11050;52.222;20.916;2024-03-22T06:19:09;67.67;;;33.50;;
21777;SDS011;11050;52.222;20.916;2024-03-22T06:21:35;60.50;;;31.63;;
21777;SDS011;11050;52.222;20.916;2024-03-22T06:24:01;63.60;;;31.60;;
21777;SDS011;11050;52.222;20.916;2024-03-22T06:26:28;60.67;;;30.93;;
21777;SDS011;11050;52.222;20.916;2024-03-22T06:28:54;62.97;;;32.60;;
21777;SDS011;11050;52.222;20.916;2024-03-22T06:31:19;56.93;;;30.00;;
21777;SDS011;11050;52.222;20.916;2024-03-22T06:33:45;61.07;;;29.40;;
21777;SDS011;11050;52.222;20.916;2024-03-22T06:36:11;58.23;;;30.33;;
21777;SDS011;11050;52.222;20.916;2024-03-22T06:38:36;58.40;;;29.80;;
21777;SDS011;11050;52.222;20.916;2024-03-22T06:41:03;54.27;;;27.57;;
21777;SDS011;11050;52.222;20.916;2024-03-22T06:43:29;58.13;;;29.80;;
21777;SDS011;11050;52.222;20.916;2024-03-22T06:45:54;56.00;;;30.23;;
21777;SDS011;11050;52.222;20.916;2024-03-22T06:48:20;54.57;;;28.97;;
21777;SDS011;11050;52.222;20.916;2024-03-22T06:50:46;55.13;;;29.47;;
21777;SDS011;11050;52.222;20.916;2024-03-22T06:53:12;56.80;;;27.70;;
21777;SDS011;11050;52.222;20.916;2024-03-22T06:55:37;58.10;;;27.80;;
21777;SDS011;11050;52.222;20.916;2024-03-22T06:58:03;54.03;;;28.53;;
21777;SDS011;11050;52.222;20.916;2024-03-22T07:00:29;50.67;;;26.97;;
21777;SDS011;11050;52.222;20.916;2024-03-22T07:02:55;56.03;;;28.27;;
21777;SDS011;11050;52.222;20.916;2024-03-22T07:05:21;47.10;;;26.03;;
21777;SDS011;11050;52.222;20.916;2024-03-22T07:07:47;53.30;;;28.40;;
21777;SDS011;11050;52.222;20.916;2024-03-22T07:10:15;51.47;;;26.90;;
21777;SDS011;11050;52.222;20.916;2024-03-22T07:12:41;48.97;;;26.17;;
21777;SDS011;11050;52.222;20.916;2024-03-22T07:15:06;50.63;;;26.13;;
21777;SDS011;11050;52.222;20.916;2024-03-22T07:17:33;44.60;;;24.77;;
21777;SDS011;11050;52.222;20.916;2024-03-22T07:19:59;46.03;;;24.77;;
21777;SDS011;11050;52.222;20.916;2024-03-22T07:22:25;52.27;;;27.17;;
21777;SDS011;11050;52.222;20.916;2024-03-22T07:24:50;46.80;;;25.60;;
21777;SDS011;11050;52.222;20.916;2024-03-22T07:27:16;49.67;;;24.80;;
21777;SDS011;11050;52.222;20.916;2024-03-22T07:29:43;48.40;;;25.60;;
21777;SDS011;11050;52.222;20.916;2024-03-22T07:32:10;50.23;;;25.63;;
21777;SDS011;11050;52.222;20.916;2024-03-22T07:34:35;48.83;;;25.63;;
21777;SDS011;11050;52.222;20.916;2024-03-22T07:37:01;49.93;;;26.27;;
21777;SDS011;11050;52.222;20.916;2024-03-22T07:39:29;52.50;;;27.17;;
21777;SDS011;11050;52.222;20.916;2024-03-22T07:41:55;49.20;;;26.27;;
21777;SDS011;11050;52.222;20.916;2024-03-22T07:44:20;46.20;;;25.43;;
21777;SDS011;11050;52.222;20.916;2024-03-22T07:46:49;44.90;;;25.13;;
21777;SDS011;11050;52.222;20.916;2024-03-22T07:49:14;44.80;;;24.70;;
21777;SDS011;11050;52.222;20.916;2024-03-22T07:51:40;44.40;;;23.50;;
21777;SDS011;11050;52.222;20.916;2024-03-22T07:54:06;53.20;;;27.00;;
21777;SDS011;11050;52.222;20.916;2024-03-22T07:56:32;47.30;;;25.20;;
21777;SDS011;11050;52.222;20.916;2024-03-22T07:58:58;43.97;;;23.33;;
21777;SDS011;11050;52.222;20.916;2024-03-22T08:01:24;47.60;;;25.13;;
21777;SDS011;11050;52.222;20.916;2024-03-22T08:03:53;44.67;;;24.77;;
21777;SDS011;11050;52.222;20.916;2024-03-22T08:06:19;43.20;;;23.30;;
21777;SDS011;11050;52.222;20.916;2024-03-22T08:08:45;42.07;;;22.97;;
21777;SDS011;11050;52.222;20.916;2024-03-22T08:11:10;37.57;;;21.67;;
21777;SDS011;11050;52.222;20.916;2024-03-22T08:13:36;36.73;;;20.53;;
21777;SDS011;11050;52.222;20.916;2024-03-22T08:16:02;36.20;;;20.23;;
21777;SDS011;11050;52.222;20.916;2024-03-22T08:18:28;38.63;;;21.73;;
21777;SDS011;11050;52.222;20.916;2024-03-22T08:20:54;41.00;;;22.50;;
21777;SDS011;11050;52.222;20.916;2024-03-22T08:23:20;38.97;;;22.13;;
21777;SDS011;11050;52.222;20.916;2024-03-22T08:25:47;44.33;;;23.13;;
21777;SDS011;11050;52.222;20.916;2024-03-22T08:28:14;40.23;;;22.53;;
21777;SDS011;11050;52.222;20.916;2024-03-22T08:30:40;42.40;;;23.43;;
21777;SDS011;11050;52.222;20.916;2024-03-22T08:33:07;41.00;;;23.00;;
21777;SDS011;11050;52.222;20.916;2024-03-22T08:35:34;39.63;;;22.93;;
21777;SDS011;11050;52.222;20.916;2024-03-22T08:38:00;38.27;;;22.20;;
21777;SDS011;11050;52.222;20.916;2024-03-22T08:40:25;40.97;;;23.53;;
21777;SDS011;11050;52.222;20.916;2024-03-22T08:42:52;37.90;;;21.47;;
21777;SDS011;11050;52.222;20.916;2024-03-22T08:45:17;41.77;;;23.13;;
21777;SDS011;11050;52.222;20.916;2024-03-22T08:47:43;44.80;;;23.43;;
21777;SDS011;11050;52.222;20.916;2024-03-22T08:50:11;36.90;;;21.27;;
21777;SDS011;11050;52.222;20.916;2024-03-22T08:52:37;36.20;;;20.80;;
21777;SDS011;11050;52.222;20.916;2024-03-22T08:55:03;36.17;;;20.83;;
21777;SDS011;11050;52.222;20.916;2024-03-22T08:57:32;43.37;;;23.70;;
21777;SDS011;11050;52.222;20.916;2024-03-22T08:59:58;38.63;;;21.80;;
21777;SDS011;11050;52.222;20.916;2024-03-22T09:02:24;39.00;;;22.33;;
21777;SDS011;11050;52.222;20.916;2024-03-22T09:04:50;36.87;;;21.53;;
21777;SDS011;11050;52.222;20.916;2024-03-22T09:07:16;37.07;;;22.70;;
21777;SDS011;11050;52.222;20.916;2024-03-22T09:09:42;36.80;;;21.13;;
21777;SDS011;11050;52.222;20.916;2024-03-22T09:12:08;40.50;;;22.63;;
21777;SDS011;11050;52.222;20.916;2024-03-22T09:14:34;36.57;;;21.40;;
21777;SDS011;11050;52.222;20.916;2024-03-22T09:16:59;42.00;;;24.10;;
21777;SDS011;11050;52.222;20.916;2024-03-22T09:19:25;40.13;;;23.57;;
21777;SDS011;11050;52.222;20.916;2024-03-22T09:21:51;41.53;;;24.47;;
21777;SDS011;11050;52.222;20.916;2024-03-22T09:24:17;45.20;;;25.47;;
21777;SDS011;11050;52.222;20.916;2024-03-22T09:26:42;39.40;;;22.67;;
21777;SDS011;11050;52.222;20.916;2024-03-22T09:29:08;40.60;;;22.60;;
21777;SDS011;11050;52.222;20.916;2024-03-22T09:31:34;39.17;;;22.03;;
21777;SDS011;11050;52.222;20.916;2024-03-22T09:34:00;41.37;;;23.60;;
21777;SDS011;11050;52.222;20.916;2024-03-22T09:36:26;39.23;;;23.30;;
21777;SDS011;11050;52.222;20.916;2024-03-22T09:38:52;41.17;;;21.47;;
21777;SDS011;11050;52.222;20.916;2024-03-22T09:41:20;41.27;;;23.40;;
21777;SDS011;11050;52.222;20.916;2024-03-22T09:43:51;38.33;;;21.80;;
21777;SDS011;11050;52.222;20.916;2024-03-22T09:46:18;36.33;;;22.10;;
21777;SDS011;11050;52.222;20.916;2024-03-22T09:48:47;37.37;;;20.27;;
21777;SDS011;11050;52.222;20.916;2024-03-22T09:51:17;34.63;;;21.63;;
21777;SDS011;11050;52.222;20.916;2024-03-22T09:53:44;32.27;;;18.10;;
21777;SDS011;11050;52.222;20.916;2024-03-22T09:56:13;31.17;;;18.40;;
21777;SDS011;11050;52.222;20.916;2024-03-22T09:58:43;24.00;;;14.50;;
21777;SDS011;11050;52.222;20.916;2024-03-22T10:01:10;26.20;;;15.50;;
21777;SDS011;11050;52.222;20.916;2024-03-22T10:03:37;28.03;;;17.40;;
21777;SDS011;11050;52.222;20.916;2024-03-22T10:06:03;27.57;;;16.77;;
21777;SDS011;11050;52.222;20.916;2024-03-22T10:08:29;29.77;;;18.50;;
21777;SDS011;11050;52.222;20.916;2024-03-22T10:10:55;31.10;;;19.67;;
21777;SDS011;11050;52.222;20.916;2024-03-22T10:13:22;34.20;;;20.00;;
21777;SDS011;11050;52.222;20.916;2024-03-22T10:15:48;34.90;;;20.90;;
21777;SDS011;11050;52.222;20.916;2024-03-22T10:18:14;32.37;;;21.20;;
21777;SDS011;11050;52.222;20.916;2024-03-22T10:20:40;32.13;;;19.83;;
21777;SDS011;11050;52.222;20.916;2024-03-22T10:23:07;31.90;;;20.00;;
21777;SDS011;11050;52.222;20.916;2024-03-22T10:25:33;35.13;;;20.70;;
21777;SDS011;11050;52.222;20.916;2024-03-22T10:27:59;34.87;;;20.17;;
21777;SDS011;11050;52.222;20.916;2024-03-22T10:30:25;34.10;;;21.73;;
21777;SDS011;11050;52.222;20.916;2024-03-22T10:32:52;37.93;;;22.47;;
21777;SDS011;11050;52.222;20.916;2024-03-22T10:35:18;35.23;;;21.70;;
21777;SDS011;11050;52.222;20.916;2024-03-22T10:37:44;40.33;;;24.30;;
21777;SDS011;11050;52.222;20.916;2024-03-22T10:40:10;38.57;;;23.33;;
21777;SDS011;11050;52.222;20.916;2024-03-22T10:42:37;41.37;;;24.23;;
21777;SDS011;11050;52.222;20.916;2024-03-22T10:45:06;42.30;;;25.03;;
21777;SDS011;11050;52.222;20.916;2024-03-22T10:47:34;43.73;;;25.20;;
21777;SDS011;11050;52.222;20.916;2024-03-22T10:55:13;45.87;;;25.27;;
21777;SDS011;11050;52.222;20.916;2024-03-22T10:57:48;37.37;;;23.17;;
21777;SDS011;11050;52.222;20.916;2024-03-22T11:00:15;36.70;;;23.10;;
21777;SDS011;11050;52.222;20.916;2024-03-22T11:02:53;37.97;;;23.00;;
21777;SDS011;11050;52.222;20.916;2024-03-22T11:05:19;38.53;;;22.70;;
21777;SDS011;11050;52.222;20.916;2024-03-22T11:07:45;33.17;;;20.00;;
21777;SDS011;11050;52.222;20.916;2024-03-22T11:10:11;34.70;;;21.67;;
21777;SDS011;11050;52.222;20.916;2024-03-22T11:12:38;36.47;;;20.53;;
21777;SDS011;11050;52.222;20.916;2024-03-22T11:15:06;32.80;;;19.88;;
21777;SDS011;11050;52.222;20.916;2024-03-22T11:17:35;31.17;;;19.47;;
21777;SDS011;11050;52.222;20.916;2024-03-22T11:20:02;28.55;;;18.70;;
21777;SDS011;11050;52.222;20.916;2024-03-22T11:22:28;28.93;;;18.57;;
21777;SDS011;11050;52.222;20.916;2024-03-22T11:24:54;31.48;;;19.30;;
21777;SDS011;11050;52.222;20.916;2024-03-22T11:27:20;31.03;;;19.13;;
21777;SDS011;11050;52.222;20.916;2024-03-22T11:29:45;28.52;;;19.73;;
21777;SDS011;11050;52.222;20.916;2024-03-22T11:32:11;32.03;;;19.10;;
21777;SDS011;11050;52.222;20.916;2024-03-22T11:34:38;28.53;;;18.40;;
21777;SDS011;11050;52.222;20.916;2024-03-22T11:37:06;27.30;;;16.70;;
21777;SDS011;11050;52.222;20.916;2024-03-22T11:39:35;31.27;;;18.13;;
21777;SDS011;11050;52.222;20.916;2024-03-22T11:42:03;29.83;;;17.97;;
21777;SDS011;11050;52.222;20.916;2024-03-22T11:44:32;27.80;;;18.50;;
21777;SDS011;11050;52.222;20.916;2024-03-22T11:47:01;28.90;;;16.63;;
21777;SDS011;11050;52.222;20.916;2024-03-22T11:49:28;28.67;;;18.30;;
21777;SDS011;11050;52.222;20.916;2024-03-22T11:51:55;24.87;;;16.33;;
21777;SDS011;11050;52.222;20.916;2024-03-22T11:54:22;27.03;;;16.30;;
21777;SDS011;11050;52.222;20.916;2024-03-22T11:56:51;28.63;;;16.47;;
21777;SDS011;11050;52.222;20.916;2024-03-22T11:59:20;28.97;;;16.43;;
21777;SDS011;11050;52.222;20.916;2024-03-22T12:01:49;27.63;;;16.05;;
21777;SDS011;11050;52.222;20.916;2024-03-22T12:04:15;29.35;;;16.55;;
21777;SDS011;11050;52.222;20.916;2024-03-22T12:06:42;29.58;;;16.08;;
21777;SDS011;11050;52.222;20.916;2024-03-22T12:09:09;23.63;;;15.00;;
21777;SDS011;11050;52.222;20.916;2024-03-22T12:11:37;26.83;;;15.57;;
21777;SDS011;11050;52.222;20.916;2024-03-22T12:14:03;25.83;;;14.40;;
21777;SDS011;11050;52.222;20.916;2024-03-22T12:16:29;23.90;;;14.10;;
21777;SDS011;11050;52.222;20.916;2024-03-22T12:18:54;22.27;;;14.03;;
21777;SDS011;11050;52.222;20.916;2024-03-22T12:21:20;26.77;;;15.38;;
21777;SDS011;11050;52.222;20.916;2024-03-22T12:23:46;23.38;;;13.68;;
21777;SDS011;11050;52.222;20.916;2024-03-22T12:26:12;21.08;;;13.95;;
21777;SDS011;11050;52.222;20.916;2024-03-22T12:28:38;21.38;;;14.25;;
21777;SDS011;11050;52.222;20.916;2024-03-22T12:31:04;22.97;;;13.63;;
21777;SDS011;11050;52.222;20.916;2024-03-22T12:33:30;20.07;;;13.60;;
21777;SDS011;11050;52.222;20.916;2024-03-22T12:35:56;23.30;;;12.40;;
21777;SDS011;11050;52.222;20.916;2024-03-22T12:38:21;19.80;;;12.53;;
21777;SDS011;11050;52.222;20.916;2024-03-22T12:40:47;21.83;;;13.63;;
21777;SDS011;11050;52.222;20.916;2024-03-22T12:43:15;21.00;;;12.65;;
21777;SDS011;11050;52.222;20.916;2024-03-22T12:45:40;19.67;;;12.68;;
21777;SDS011;11050;52.222;20.916;2024-03-22T12:48:06;18.25;;;11.70;;
21777;SDS011;11050;52.222;20.916;2024-03-22T12:50:32;21.97;;;12.03;;
21777;SDS011;11050;52.222;20.916;2024-03-22T12:52:58;17.30;;;11.68;;
21777;SDS011;11050;52.222;20.916;2024-03-22T12:55:24;19.67;;;11.93;;
21777;SDS011;11050;52.222;20.916;2024-03-22T12:57:50;18.20;;;12.65;;
21777;SDS011;11050;52.222;20.916;2024-03-22T13:00:16;19.63;;;12.68;;
21777;SDS011;11050;52.222;20.916;2024-03-22T13:02:45;19.23;;;12.52;;
21777;SDS011;11050;52.222;20.916;2024-03-22T13:05:12;19.73;;;13.50;;
21777;SDS011;11050;52.222;20.916;2024-03-22T13:07:38;19.85;;;12.82;;
21777;SDS011;11050;52.222;20.916;2024-03-22T13:10:04;19.07;;;13.10;;
21777;SDS011;11050;52.222;20.916;2024-03-22T13:12:31;16.98;;;12.48;;
21777;SDS011;11050;52.222;20.916;2024-03-22T13:14:59;21.13;;;12.93;;
21777;SDS011;11050;52.222;20.916;2024-03-22T13:17:25;19.63;;;12.98;;
21777;SDS011;11050;52.222;20.916;2024-03-22T13:19:51;22.60;;;14.88;;
21777;SDS011;11050;52.222;20.916;2024-03-22T13:22:16;20.80;;;13.13;;
21777;SDS011;11050;52.222;20.916;2024-03-22T13:24:46;20.35;;;14.27;;
21777;SDS011;11050;52.222;20.916;2024-03-22T13:27:13;25.75;;;15.60;;
21777;SDS011;11050;52.222;20.916;2024-03-22T13:29:39;21.52;;;13.60;;
21777;SDS011;11050;52.222;20.916;2024-03-22T13:32:05;21.90;;;15.50;;
21777;SDS011;11050;52.222;20.916;2024-03-22T13:34:35;20.98;;;15.20;;
21777;SDS011;11050;52.222;20.916;2024-03-22T13:37:02;25.30;;;16.10;;
21777;SDS011;11050;52.222;20.916;2024-03-22T13:39:28;23.08;;;15.13;;
21777;SDS011;11050;52.222;20.916;2024-03-22T13:41:55;24.40;;;15.95;;
21777;SDS011;11050;52.222;20.916;2024-03-22T13:44:24;23.70;;;14.98;;
21777;SDS011;11050;52.222;20.916;2024-03-22T13:46:50;21.00;;;15.10;;
21777;SDS011;11050;52.222;20.916;2024-03-22T13:49:17;22.33;;;15.50;;
21777;SDS011;11050;52.222;20.916;2024-03-22T13:51:45;22.83;;;15.85;;
21777;SDS011;11050;52.222;20.916;2024-03-22T13:54:13;25.02;;;16.35;;
21777;SDS011;11050;52.222;20.916;2024-03-22T13:56:39;24.80;;;15.30;;
21777;SDS011;11050;52.222;20.916;2024-03-22T13:59:05;22.67;;;15.38;;
21777;SDS011;11050;52.222;20.916;2024-03-22T14:01:37;24.00;;;16.50;;
21777;SDS011;11050;52.222;20.916;2024-03-22T14:04:03;24.35;;;16.92;;
21777;SDS011;11050;52.222;20.916;2024-03-22T14:06:30;24.50;;;16.70;;
21777;SDS011;11050;52.222;20.916;2024-03-22T14:08:58;27.95;;;16.85;;